Time;durP1;ratioP1;P1;durP2;ratioP2;P2;SDS_P1;SDS_P2;PMS_P1;PMS_P2;Temp;Humidity;BMP_temperature;BMP_pressure;BME280_temperature;BME280_humidity;BME280_pressure;Samples;Min_cycle;Max_cycle;Signal;HPM_P1;HPM_P2
2021/01/31 00:00:30;;;;;;;38.27;19.70;;;-1.10;99.90;;;;;;5051234;27;37011;-73
2021/01/31 00:02:57;;;;;;;34.80;19.43;;;-1.20;99.90;;;;;;5023016;28;38997;-74
2021/01/31 00:05:24;;;;;;;37.10;20.30;;;-1.20;99.90;;;;;;5019506;28;37880;-73
2021/01/31 00:07:51;;;;;;;35.67;19.67;;;-1.20;99.90;;;;;;5019550;28;38840;-74
2021/01/31 00:10:20;;;;;;;39.40;19.40;;;-1.30;99.90;;;;;;5047216;28;37051;-73
2021/01/31 00:12:47;;;;;;;38.90;21.00;;;-1.30;99.90;;;;;;5058215;28;38818;-74
2021/01/31 00:15:20;;;;;;;39.73;20.33;;;-1.30;99.90;;;;;;5021809;28;38906;-73
2021/01/31 00:17:46;;;;;;;37.08;19.92;;;-1.30;99.90;;;;;;5018946;28;38750;-73
2021/01/31 00:20:15;;;;;;;38.43;19.30;;;-1.30;99.90;;;;;;5014172;28;36406;-74
2021/01/31 00:22:41;;;;;;;38.07;20.77;;;-1.30;99.90;;;;;;5018745;28;38404;-74
2021/01/31 00:25:08;;;;;;;35.87;19.00;;;-1.30;99.90;;;;;;5027744;28;39200;-74
2021/01/31 00:27:35;;;;;;;35.87;19.70;;;-1.30;99.90;;;;;;5025124;28;38644;-74
2021/01/31 00:30:04;;;;;;;41.43;20.00;;;-1.40;99.90;;;;;;5032087;28;37806;-74
2021/01/31 00:32:30;;;;;;;39.90;20.70;;;-1.40;99.90;;;;;;5031400;28;46771;-73
2021/01/31 00:34:57;;;;;;;40.73;21.27;;;-1.40;99.90;;;;;;5038308;28;39408;-74
2021/01/31 00:37:23;;;;;;;40.13;19.97;;;-1.40;99.90;;;;;;5037665;27;39240;-74
2021/01/31 00:39:51;;;;;;;42.53;21.07;;;-1.50;99.90;;;;;;5039975;28;39251;-74
2021/01/31 00:42:20;;;;;;;41.10;20.27;;;-1.50;99.90;;;;;;5038556;28;37930;-74
2021/01/31 00:44:51;;;;;;;41.30;20.23;;;-1.50;99.90;;;;;;5034226;28;38593;-73
2021/01/31 00:47:19;;;;;;;40.93;20.70;;;-1.50;99.90;;;;;;5040490;28;40478;-73
2021/01/31 00:49:46;;;;;;;44.10;20.60;;;-1.50;99.90;;;;;;5038765;28;37847;-74
2021/01/31 00:52:13;;;;;;;41.83;20.10;;;-1.50;99.90;;;;;;5044028;27;37831;-74
2021/01/31 00:54:39;;;;;;;40.57;20.37;;;-1.50;99.90;;;;;;5040445;28;39657;-74
2021/01/31 00:57:06;;;;;;;42.50;21.87;;;-1.50;99.90;;;;;;5038403;28;39362;-74
2021/01/31 00:59:32;;;;;;;41.67;20.63;;;-1.60;99.90;;;;;;5038407;28;39902;-73
2021/01/31 01:02:00;;;;;;;43.67;21.87;;;-1.60;99.90;;;;;;5053476;28;36157;-74
2021/01/31 01:04:26;;;;;;;42.83;21.53;;;-1.60;99.90;;;;;;5036529;28;41201;-74
2021/01/31 01:06:52;;;;;;;43.70;22.87;;;-1.60;99.90;;;;;;5043800;28;39044;-74
2021/01/31 01:09:18;;;;;;;41.37;21.63;;;-1.70;99.90;;;;;;5034647;28;38605;-74
2021/01/31 01:11:44;;;;;;;45.50;23.30;;;-1.70;99.90;;;;;;5031606;28;40048;-74
2021/01/31 01:14:10;;;;;;;47.10;21.90;;;-1.70;99.90;;;;;;5043097;28;39547;-74
2021/01/31 01:16:36;;;;;;;48.23;22.20;;;-1.70;99.90;;;;;;5042915;27;38317;-74
2021/01/31 01:19:04;;;;;;;49.00;23.13;;;-1.70;99.90;;;;;;5038973;27;38884;-74
2021/01/31 01:21:31;;;;;;;47.80;23.20;;;-1.80;99.90;;;;;;5040775;28;38210;-74
2021/01/31 01:23:59;;;;;;;41.77;20.43;;;-1.70;99.90;;;;;;5040762;28;39646;-73
2021/01/31 01:26:30;;;;;;;45.43;22.03;;;-1.80;99.90;;;;;;5042330;28;38552;-74
2021/01/31 01:28:56;;;;;;;45.27;22.30;;;-1.80;99.90;;;;;;5051130;28;39266;-74
2021/01/31 01:31:24;;;;;;;47.33;22.67;;;-1.80;99.90;;;;;;5035120;27;37334;-74
2021/01/31 01:33:50;;;;;;;45.87;22.37;;;-1.80;99.90;;;;;;5055949;28;38947;-74
2021/01/31 01:36:17;;;;;;;47.90;23.50;;;-1.80;99.90;;;;;;5045913;27;38230;-74
2021/01/31 01:38:44;;;;;;;48.17;23.13;;;-1.80;99.90;;;;;;5057287;28;37176;-73
2021/01/31 01:41:10;;;;;;;47.47;22.47;;;-1.80;99.90;;;;;;5064591;28;38023;-73
2021/01/31 01:43:36;;;;;;;49.17;22.07;;;-1.80;99.90;;;;;;5021620;28;38419;-73
2021/01/31 01:46:19;;;;;;;43.17;22.93;;;-1.80;99.90;;;;;;5015944;28;39683;-74
2021/01/31 01:48:55;;;;;;;48.38;24.38;;;-1.80;99.90;;;;;;5034095;28;38379;-74
2021/01/31 01:51:35;;;;;;;47.10;23.57;;;-1.80;99.90;;;;;;5015521;28;37732;-73
2021/01/31 01:54:03;;;;;;;50.20;24.63;;;-1.90;99.90;;;;;;5013683;28;39855;-74
2021/01/31 01:56:36;;;;;;;47.67;22.63;;;-1.90;99.90;;;;;;5033828;28;38411;-74
2021/01/31 01:59:03;;;;;;;48.97;24.03;;;-1.90;99.90;;;;;;5019517;28;38027;-74
2021/01/31 02:01:30;;;;;;;48.00;23.20;;;-1.90;99.90;;;;;;5019877;28;37947;-73
2021/01/31 02:03:58;;;;;;;46.57;24.50;;;-1.90;99.90;;;;;;5022544;28;39315;-74
2021/01/31 02:06:28;;;;;;;48.33;24.20;;;-1.90;99.90;;;;;;5024732;28;37267;-73
2021/01/31 02:08:58;;;;;;;46.23;22.93;;;-2.00;99.90;;;;;;5022160;28;38073;-74
2021/01/31 02:11:27;;;;;;;50.30;23.07;;;-2.00;99.90;;;;;;5023166;28;39517;-74
2021/01/31 02:13:59;;;;;;;43.20;22.17;;;-2.00;99.90;;;;;;5023214;28;39633;-74
2021/01/31 02:16:50;;;;;;;48.08;23.33;;;-2.00;99.90;;;;;;5025028;28;39612;-74
2021/01/31 02:20:04;;;;;;;49.97;23.30;;;-2.00;99.90;;;;;;5021738;28;36980;-74
2021/01/31 02:23:11;;;;;;;48.00;24.00;;;-2.10;99.90;;;;;;5041322;27;49859;-73
2021/01/31 02:25:45;;;;;;;49.50;23.03;;;-2.00;99.90;;;;;;5031237;28;48070;-74
2021/01/31 02:28:46;;;;;;;54.30;25.57;;;-2.00;99.90;;;;;;5051681;28;39177;-73
2021/01/31 02:31:54;;;;;;;51.03;23.50;;;-2.00;99.90;;;;;;5041719;28;38439;-73
2021/01/31 02:34:23;;;;;;;53.97;25.37;;;-2.00;99.90;;;;;;5019410;28;39695;-73
2021/01/31 02:37:04;;;;;;;49.60;23.20;;;-2.10;99.90;;;;;;5036735;27;38965;-74
2021/01/31 02:39:36;;;;;;;55.30;24.50;;;-2.10;99.90;;;;;;5037263;28;48352;-74
2021/01/31 02:42:13;;;;;;;49.38;22.60;;;-2.10;99.90;;;;;;5061798;27;38986;-73
2021/01/31 02:44:44;;;;;;;51.17;24.30;;;-2.10;99.90;;;;;;5044247;27;37451;-73
2021/01/31 02:47:17;;;;;;;49.47;23.83;;;-2.10;99.90;;;;;;5051869;27;39406;-73
2021/01/31 02:49:58;;;;;;;50.67;24.57;;;-2.10;99.90;;;;;;5019099;28;38358;-73
2021/01/31 02:52:37;;;;;;;52.53;24.27;;;-2.20;99.90;;;;;;5051372;28;37713;-73
2021/01/31 02:55:19;;;;;;;46.10;22.37;;;-2.20;99.90;;;;;;5051723;28;36032;-73
2021/01/31 02:57:58;;;;;;;48.77;23.97;;;-2.10;99.90;;;;;;5019697;28;39017;-73
2021/01/31 03:00:33;;;;;;;46.77;24.10;;;-2.20;99.90;;;;;;5023112;28;38373;-73
2021/01/31 03:03:22;;;;;;;49.53;24.23;;;-2.20;99.90;;;;;;5020373;28;37962;-74
2021/01/31 03:05:53;;;;;;;51.27;25.13;;;-2.20;99.90;;;;;;5023873;28;48260;-73
2021/01/31 03:08:39;;;;;;;47.00;22.67;;;-2.20;99.90;;;;;;5036308;27;39299;-74
2021/01/31 03:11:46;;;;;;;44.77;23.33;;;-2.20;99.90;;;;;;5019606;28;38647;-73
2021/01/31 03:14:42;;;;;;;46.13;22.97;;;-2.30;99.90;;;;;;5028966;28;37991;-73
2021/01/31 03:17:17;;;;;;;47.23;23.27;;;-2.30;99.90;;;;;;5065271;28;38711;-74
2021/01/31 03:19:56;;;;;;;49.33;23.90;;;-2.30;99.90;;;;;;5034841;27;37291;-74
2021/01/31 03:22:27;;;;;;;53.37;24.30;;;-2.30;99.90;;;;;;5040349;28;38534;-73
2021/01/31 03:25:03;;;;;;;50.60;25.40;;;-2.30;99.90;;;;;;5041778;28;38222;-73
2021/01/31 03:27:36;;;;;;;52.83;24.47;;;-2.30;99.90;;;;;;5035193;28;48712;-74
2021/01/31 03:30:05;;;;;;;51.00;24.33;;;-2.30;99.90;;;;;;5034191;28;38711;-74
2021/01/31 03:32:35;;;;;;;49.27;24.70;;;-2.30;99.90;;;;;;5030030;28;47091;-73
2021/01/31 03:35:09;;;;;;;50.57;23.77;;;-2.30;99.90;;;;;;5032655;28;38089;-73
2021/01/31 03:37:42;;;;;;;45.53;22.63;;;-2.30;99.90;;;;;;5026971;28;46866;-74
2021/01/31 03:40:09;;;;;;;53.75;25.67;;;-2.40;99.90;;;;;;5037013;28;39352;-73
2021/01/31 03:42:36;;;;;;;51.33;24.60;;;-2.40;99.90;;;;;;5063758;28;37226;-73
2021/01/31 03:45:06;;;;;;;52.33;24.00;;;-2.40;99.90;;;;;;5034827;28;39121;-74
2021/01/31 03:47:47;;;;;;;52.07;25.20;;;-2.40;99.90;;;;;;5030994;28;48990;-74
2021/01/31 03:50:14;;;;;;;48.63;24.43;;;-2.40;99.90;;;;;;5029861;28;39521;-73
2021/01/31 03:52:40;;;;;;;47.23;23.30;;;-2.50;99.90;;;;;;5032927;28;37519;-73
2021/01/31 03:55:07;;;;;;;56.80;26.83;;;-2.50;99.90;;;;;;5038581;27;39274;-73
2021/01/31 03:57:45;;;;;;;44.27;23.40;;;-2.50;99.90;;;;;;5041422;28;38191;-74
2021/01/31 04:00:18;;;;;;;48.90;24.93;;;-2.50;99.90;;;;;;5065410;28;39182;-73
2021/01/31 04:03:15;;;;;;;45.70;24.25;;;-2.50;99.90;;;;;;5040673;27;39457;-73
2021/01/31 04:05:51;;;;;;;47.47;24.83;;;-2.60;99.90;;;;;;5037050;28;47207;-73
2021/01/31 04:08:18;;;;;;;52.10;25.83;;;-2.60;99.90;;;;;;5054268;27;38679;-73
2021/01/31 04:10:45;;;;;;;48.20;23.60;;;-2.60;99.90;;;;;;5039199;28;39929;-73
2021/01/31 04:13:12;;;;;;;47.57;23.97;;;-2.60;99.90;;;;;;5037284;27;37980;-73
2021/01/31 04:15:49;;;;;;;51.13;26.07;;;-2.60;99.90;;;;;;5043544;28;38102;-74
2021/01/31 04:18:17;;;;;;;49.93;24.07;;;-2.60;99.90;;;;;;5043932;27;38297;-74
2021/01/31 04:20:44;;;;;;;50.10;24.43;;;-2.60;99.90;;;;;;5050636;27;39625;-73
2021/01/31 04:23:10;;;;;;;47.77;24.07;;;-2.60;99.90;;;;;;5021456;28;37728;-73
2021/01/31 04:25:37;;;;;;;49.87;24.87;;;-2.60;99.90;;;;;;5015774;28;39111;-73
2021/01/31 04:28:22;;;;;;;48.10;23.80;;;-2.70;99.90;;;;;;5019260;28;36557;-74
2021/01/31 04:30:59;;;;;;;50.07;24.83;;;-2.70;99.90;;;;;;5019276;28;40478;-73
2021/01/31 04:33:26;;;;;;;49.70;25.47;;;-2.70;99.90;;;;;;5021962;28;39483;-74
2021/01/31 04:35:53;;;;;;;50.93;24.93;;;-2.70;99.90;;;;;;5032939;28;37107;-73
2021/01/31 04:38:19;;;;;;;51.90;26.33;;;-2.60;99.90;;;;;;5018163;28;37953;-73
2021/01/31 04:40:45;;;;;;;51.37;25.20;;;-2.70;99.90;;;;;;5016542;28;40811;-73
2021/01/31 04:43:16;;;;;;;53.50;24.63;;;-2.70;99.90;;;;;;5018094;28;39434;-73
2021/01/31 04:45:42;;;;;;;54.80;25.33;;;-2.70;99.90;;;;;;5023079;28;38505;-73
2021/01/31 04:48:23;;;;;;;53.07;26.47;;;-2.70;99.90;;;;;;5019441;28;38119;-73
2021/01/31 04:50:58;;;;;;;52.13;24.23;;;-2.70;99.90;;;;;;5046427;28;40382;-73
2021/01/31 04:53:48;;;;;;;45.57;23.60;;;-2.70;99.90;;;;;;5018473;28;38051;-74
2021/01/31 04:56:20;;;;;;;48.73;24.90;;;-2.70;99.90;;;;;;5048223;28;39032;-74
2021/01/31 04:58:51;;;;;;;48.57;24.33;;;-2.70;99.90;;;;;;5049699;28;37961;-73
2021/01/31 05:01:29;;;;;;;48.37;24.67;;;-2.70;99.90;;;;;;5021473;28;39809;-74
2021/01/31 05:04:00;;;;;;;53.60;24.67;;;-2.70;99.90;;;;;;5017377;28;40041;-73
2021/01/31 05:06:31;;;;;;;49.50;25.93;;;-2.70;99.90;;;;;;5021947;28;38672;-74
2021/01/31 05:09:00;;;;;;;50.90;24.60;;;-2.70;99.90;;;;;;5020126;28;38686;-74
2021/01/31 05:12:20;;;;;;;48.87;23.43;;;-2.80;99.90;;;;;;5038447;28;41665;-73
2021/01/31 05:15:23;;;;;;;49.43;24.80;;;-2.80;99.90;;;;;;5028143;28;49871;-73
2021/01/31 05:17:52;;;;;;;50.28;25.83;;;-2.70;99.90;;;;;;5021027;28;48177;-73
2021/01/31 05:20:21;;;;;;;53.27;25.23;;;-2.70;99.90;;;;;;5038629;28;38145;-74
2021/01/31 05:22:52;;;;;;;49.87;24.77;;;-2.70;99.90;;;;;;5041010;27;39521;-74
2021/01/31 05:25:21;;;;;;;51.07;25.33;;;-2.80;99.90;;;;;;5036931;28;38530;-74
2021/01/31 05:27:52;;;;;;;54.10;25.37;;;-2.80;99.90;;;;;;5070826;28;38993;-74
2021/01/31 05:30:18;;;;;;;48.97;24.57;;;-2.80;99.90;;;;;;5038723;28;38010;-74
2021/01/31 05:33:09;;;;;;;47.57;24.43;;;-2.90;99.90;;;;;;5042893;28;39045;-73
2021/01/31 05:35:51;;;;;;;50.77;24.83;;;-2.80;99.90;;;;;;5033694;28;48525;-73
2021/01/31 05:38:37;;;;;;;50.33;25.27;;;-2.80;99.90;;;;;;5052388;28;38522;-74
2021/01/31 05:41:45;;;;;;;50.00;24.10;;;-2.80;99.90;;;;;;5070242;28;36323;-73
2021/01/31 05:44:14;;;;;;;50.70;24.13;;;-2.80;99.90;;;;;;5050570;28;39441;-71
2021/01/31 05:46:47;;;;;;;52.47;25.10;;;-2.80;99.90;;;;;;5040740;28;37281;-73
2021/01/31 05:49:42;;;;;;;49.73;25.50;;;-2.80;99.90;;;;;;5037995;28;38411;-74
2021/01/31 05:52:28;;;;;;;52.07;24.67;;;-2.90;99.90;;;;;;5039745;28;37704;-73
2021/01/31 05:54:55;;;;;;;48.93;23.10;;;-2.90;99.90;;;;;;5068805;28;39567;-74
2021/01/31 05:57:32;;;;;;;50.13;23.97;;;-2.90;99.90;;;;;;5040806;27;40009;-74
2021/01/31 06:00:00;;;;;;;49.57;24.13;;;-2.90;99.90;;;;;;5033515;28;38301;-74
2021/01/31 06:02:29;;;;;;;50.97;24.17;;;-2.90;99.90;;;;;;5042646;28;37624;-74
2021/01/31 06:05:19;;;;;;;49.77;24.03;;;-2.90;99.90;;;;;;5063206;28;39229;-72
2021/01/31 06:07:56;;;;;;;46.53;23.73;;;-3.00;99.90;;;;;;5021612;28;47299;-72
2021/01/31 06:10:23;;;;;;;47.83;23.30;;;-3.00;99.90;;;;;;5025649;28;38758;-71
2021/01/31 06:12:50;;;;;;;45.90;24.13;;;-3.00;99.90;;;;;;5026443;28;38486;-72
2021/01/31 06:15:22;;;;;;;52.57;24.33;;;-3.00;99.90;;;;;;5038333;28;39096;-71
2021/01/31 06:17:58;;;;;;;49.55;25.20;;;-2.90;99.90;;;;;;5038083;28;39401;-71
2021/01/31 06:20:34;;;;;;;49.23;24.93;;;-2.90;99.90;;;;;;5040291;28;38709;-72
2021/01/31 06:23:02;;;;;;;48.93;24.93;;;-2.90;99.90;;;;;;5063174;27;37119;-72
2021/01/31 06:25:28;;;;;;;52.27;24.80;;;-3.00;99.90;;;;;;5040957;28;48125;-72
2021/01/31 06:28:19;;;;;;;47.27;23.07;;;-3.00;99.90;;;;;;5039428;28;42215;-72
2021/01/31 06:31:04;;;;;;;48.73;23.13;;;-3.00;99.90;;;;;;5028585;28;47325;-73
2021/01/31 06:33:30;;;;;;;47.97;23.67;;;-3.00;99.90;;;;;;5032256;28;49042;-73
2021/01/31 06:36:22;;;;;;;51.17;24.23;;;-3.00;99.90;;;;;;5052141;28;40544;-73
2021/01/31 06:39:33;;;;;;;51.17;25.20;;;-3.10;99.90;;;;;;5018409;28;49067;-73
2021/01/31 06:42:10;;;;;;;51.63;24.40;;;-3.10;99.90;;;;;;5010370;28;48823;-73
2021/01/31 06:45:11;;;;;;;50.90;24.67;;;-3.00;99.90;;;;;;5017615;28;47112;-73
2021/01/31 06:47:56;;;;;;;51.87;25.30;;;-3.10;99.90;;;;;;5014558;28;47106;-73
2021/01/31 06:50:28;;;;;;;52.77;25.40;;;-3.10;99.90;;;;;;5032078;28;38027;-73
2021/01/31 06:53:03;;;;;;;51.45;25.02;;;-3.10;99.90;;;;;;5012868;28;36969;-73
2021/01/31 06:55:41;;;;;;;49.87;23.27;;;-3.10;99.90;;;;;;5026417;28;47359;-72
2021/01/31 06:58:27;;;;;;;51.30;24.07;;;-3.10;99.90;;;;;;5028034;28;40060;-73
2021/01/31 07:01:24;;;;;;;50.47;24.23;;;-3.20;99.90;;;;;;5026121;28;37985;-73
2021/01/31 07:04:00;;;;;;;47.03;23.43;;;-3.20;99.90;;;;;;5026156;28;47348;-73
2021/01/31 07:07:05;;;;;;;51.03;23.63;;;-3.20;99.90;;;;;;5035860;28;37873;-73
2021/01/31 07:09:49;;;;;;;49.93;24.10;;;-3.20;99.90;;;;;;5016033;28;47601;-73
2021/01/31 07:12:26;;;;;;;55.73;25.23;;;-3.20;99.90;;;;;;5028482;28;37056;-73
2021/01/31 07:14:57;;;;;;;48.90;24.33;;;-3.20;99.90;;;;;;5022423;28;38372;-73
2021/01/31 07:17:26;;;;;;;50.53;24.47;;;-3.30;99.90;;;;;;5020770;28;37433;-73
2021/01/31 07:20:07;;;;;;;52.80;24.87;;;-3.30;99.90;;;;;;5015416;28;38068;-73
2021/01/31 07:22:48;;;;;;;49.87;24.13;;;-3.30;99.90;;;;;;5022784;28;49871;-73
2021/01/31 07:25:30;;;;;;;50.70;24.33;;;-3.30;99.90;;;;;;5018380;28;37145;-72
2021/01/31 07:28:13;;;;;;;52.93;25.03;;;-3.20;99.90;;;;;;5020284;28;38973;-72
2021/01/31 07:30:56;;;;;;;47.57;23.53;;;-3.30;99.90;;;;;;5041620;28;47148;-73
2021/01/31 07:33:31;;;;;;;;;;;-3.30;99.90;;;;;;5036800;27;39664;-73
2021/01/31 07:36:07;;;;;;;53.27;24.43;;;-3.20;99.90;;;;;;5045654;28;36779;-74
2021/01/31 07:39:00;;;;;;;47.87;23.93;;;-3.30;99.90;;;;;;5038965;28;47222;-73
2021/01/31 07:41:28;;;;;;;53.33;25.90;;;-3.20;99.90;;;;;;5045988;28;47329;-73
2021/01/31 07:44:00;;;;;;;54.60;26.47;;;-3.20;99.90;;;;;;5043526;28;38351;-73
2021/01/31 07:46:26;;;;;;;51.78;24.35;;;-3.20;99.90;;;;;;5047616;28;47521;-73
2021/01/31 07:48:54;;;;;;;56.97;25.40;;;-3.20;99.90;;;;;;5070935;28;37239;-73
2021/01/31 07:51:40;;;;;;;51.13;24.47;;;-3.20;99.90;;;;;;5042233;28;38691;-73
2021/01/31 07:54:27;;;;;;;51.97;24.77;;;-3.20;99.90;;;;;;5073564;28;38633;-73
2021/01/31 07:56:55;;;;;;;45.07;23.20;;;-3.20;99.90;;;;;;5042795;27;38906;-73
2021/01/31 07:59:28;;;;;;;47.30;24.10;;;-3.20;99.90;;;;;;5039669;28;38774;-73
2021/01/31 08:01:58;;;;;;;54.20;24.90;;;-3.20;99.90;;;;;;5036837;28;38709;-73
2021/01/31 08:04:43;;;;;;;54.30;26.27;;;-3.20;99.90;;;;;;5039949;28;39281;-74
2021/01/31 08:07:10;;;;;;;49.87;24.83;;;-3.20;99.90;;;;;;5036542;27;39066;-73
2021/01/31 08:09:40;;;;;;;52.13;25.73;;;-3.20;99.90;;;;;;5037187;27;37423;-73
2021/01/31 08:12:11;;;;;;;57.37;26.90;;;-3.20;99.90;;;;;;5037979;27;39548;-73
2021/01/31 08:15:08;;;;;;;57.40;24.80;;;-3.10;99.90;;;;;;5064195;27;37620;-73
2021/01/31 08:17:39;;;;;;;52.00;24.77;;;-3.10;99.90;;;;;;5032554;28;47272;-73
2021/01/31 08:20:17;;;;;;;52.67;25.07;;;-3.00;99.90;;;;;;5036214;28;36481;-73
2021/01/31 08:22:44;;;;;;;54.47;25.30;;;-3.00;99.90;;;;;;5040116;28;39085;-73
2021/01/31 08:25:10;;;;;;;56.87;26.60;;;-3.00;99.90;;;;;;5034564;27;38642;-73
2021/01/31 08:27:42;;;;;;;52.93;26.73;;;-2.90;99.90;;;;;;5031758;28;37176;-73
2021/01/31 08:30:38;;;;;;;54.47;26.40;;;-2.90;99.90;;;;;;5043370;27;37356;-73
2021/01/31 08:33:06;;;;;;;51.53;24.77;;;-2.90;99.90;;;;;;5038373;27;39019;-73
2021/01/31 08:35:41;;;;;;;53.30;26.20;;;-2.80;99.90;;;;;;5035356;28;38682;-73
2021/01/31 08:38:10;;;;;;;51.13;25.43;;;-2.80;99.90;;;;;;5037191;28;37152;-73
2021/01/31 08:40:37;;;;;;;53.13;24.57;;;-2.70;99.90;;;;;;5027000;28;35985;-73
2021/01/31 08:43:03;;;;;;;58.43;27.97;;;-2.60;99.90;;;;;;5016801;28;38818;-72
2021/01/31 08:45:41;;;;;;;57.93;27.47;;;-2.60;99.90;;;;;;5032511;28;37555;-72
2021/01/31 08:48:07;;;;;;;53.13;26.37;;;-2.60;99.90;;;;;;5016712;28;38803;-72
2021/01/31 08:50:33;;;;;;;48.10;24.77;;;-2.60;99.90;;;;;;5027893;28;38218;-73
2021/01/31 08:53:04;;;;;;;46.83;24.77;;;-2.60;99.90;;;;;;5016305;28;37634;-72
2021/01/31 08:55:31;;;;;;;50.67;26.00;;;-2.50;99.90;;;;;;5048799;28;46978;-72
2021/01/31 08:57:59;;;;;;;52.43;24.90;;;-2.50;99.90;;;;;;5018371;28;39023;-72
2021/01/31 09:00:28;;;;;;;49.50;25.90;;;-2.50;99.90;;;;;;5028184;28;37948;-72
2021/01/31 09:02:55;;;;;;;46.97;25.63;;;-2.40;99.90;;;;;;5012149;28;39220;-73
2021/01/31 09:05:21;;;;;;;47.90;24.77;;;-2.40;99.90;;;;;;5017158;28;39156;-73
2021/01/31 09:07:51;;;;;;;55.60;26.00;;;-2.30;99.90;;;;;;5049485;28;40061;-72
2021/01/31 09:10:22;;;;;;;46.93;24.47;;;-2.30;99.90;;;;;;5016230;28;36410;-73
2021/01/31 09:12:49;;;;;;;45.97;24.83;;;-2.30;99.90;;;;;;5022128;28;39812;-73
2021/01/31 09:15:24;;;;;;;50.20;25.80;;;-2.20;99.90;;;;;;5033451;28;38707;-74
2021/01/31 09:17:51;;;;;;;45.67;23.03;;;-2.10;99.90;;;;;;5035497;28;37650;-72
2021/01/31 09:20:27;;;;;;;45.83;23.93;;;-2.10;99.90;;;;;;5040404;28;36447;-73
2021/01/31 09:22:58;;;;;;;44.60;23.53;;;-2.10;99.90;;;;;;5045393;28;40013;-72
2021/01/31 09:25:26;;;;;;;46.07;24.80;;;-2.00;99.90;;;;;;5043617;28;38628;-72
2021/01/31 09:28:07;;;;;;;45.03;23.93;;;-1.90;99.90;;;;;;5040500;28;37878;-73
2021/01/31 09:30:34;;;;;;;44.93;24.17;;;-1.90;99.90;;;;;;5016505;28;49086;-72
2021/01/31 09:33:09;;;;;;;44.23;23.97;;;-1.80;99.90;;;;;;5056634;28;40666;-72
2021/01/31 09:35:38;;;;;;;43.40;24.30;;;-1.70;99.90;;;;;;5015470;28;48526;-73
2021/01/31 09:38:12;;;;;;;48.60;25.30;;;-1.60;99.90;;;;;;5029371;28;37109;-72
2021/01/31 09:40:39;;;;;;;46.50;24.00;;;-1.60;99.90;;;;;;5022389;28;38334;-73
2021/01/31 09:43:08;;;;;;;44.13;23.47;;;-1.50;99.90;;;;;;5042459;28;39320;-72
2021/01/31 09:45:41;;;;;;;43.27;23.93;;;-1.50;99.90;;;;;;5034223;28;39407;-72
2021/01/31 09:48:12;;;;;;;43.33;24.47;;;-1.50;99.90;;;;;;5022101;28;38202;-72
2021/01/31 09:50:39;;;;;;;42.93;24.07;;;-1.50;99.90;;;;;;5016446;28;38472;-72
2021/01/31 09:53:05;;;;;;;41.17;23.53;;;-1.50;99.90;;;;;;5023057;28;38765;-72
2021/01/31 09:55:43;;;;;;;39.97;22.53;;;-1.50;99.90;;;;;;5024614;28;39690;-72
2021/01/31 09:58:21;;;;;;;43.33;23.50;;;-1.50;99.90;;;;;;5012453;28;39887;-75
2021/01/31 10:00:48;;;;;;;43.40;22.63;;;-1.50;99.90;;;;;;5016677;28;38387;-72
2021/01/31 10:03:26;;;;;;;41.33;22.33;;;-1.50;99.90;;;;;;5015038;28;39000;-73
2021/01/31 10:06:05;;;;;;;41.90;23.10;;;-1.40;99.90;;;;;;5040515;28;39999;-73
2021/01/31 10:08:32;;;;;;;39.43;21.50;;;-1.30;99.90;;;;;;5018723;28;47145;-73
2021/01/31 10:11:30;;;;;;;41.10;23.53;;;-1.30;99.90;;;;;;5021764;28;37609;-72
2021/01/31 10:13:57;;;;;;;42.80;23.97;;;-1.20;99.90;;;;;;5012898;28;47687;-72
2021/01/31 10:16:27;;;;;;;43.73;24.07;;;-1.20;99.90;;;;;;5011994;28;39120;-72
2021/01/31 10:18:53;;;;;;;41.37;22.93;;;-1.10;99.90;;;;;;5018680;28;39044;-72
2021/01/31 10:21:34;;;;;;;38.43;21.97;;;-1.10;99.90;;;;;;5023676;28;37578;-72
2021/01/31 10:24:13;;;;;;;38.60;22.70;;;-1.10;99.90;;;;;;5009004;28;37620;-72
2021/01/31 10:26:39;;;;;;;39.70;22.90;;;-1.00;99.90;;;;;;5054505;28;47412;-72
2021/01/31 10:29:06;;;;;;;35.53;21.50;;;-0.90;99.90;;;;;;5017816;28;38384;-72
2021/01/31 10:31:35;;;;;;;41.43;23.13;;;-0.80;99.90;;;;;;5021208;28;37692;-72
2021/01/31 10:34:10;;;;;;;37.70;20.97;;;-0.70;99.90;;;;;;5069162;28;39752;-72
2021/01/31 10:36:45;;;;;;;39.70;21.60;;;-0.70;99.90;;;;;;5075973;28;40880;-73
2021/01/31 10:39:11;;;;;;;35.10;20.20;;;-0.70;99.90;;;;;;5047662;28;39286;-73
2021/01/31 10:41:38;;;;;;;35.83;20.13;;;-0.70;99.90;;;;;;5044741;28;37888;-73
2021/01/31 10:44:08;;;;;;;37.87;21.03;;;-0.60;99.90;;;;;;5075212;28;38409;-73
2021/01/31 10:46:36;;;;;;;36.20;20.87;;;-0.60;99.90;;;;;;5080147;28;38950;-73
2021/01/31 10:49:03;;;;;;;34.07;19.70;;;-0.50;99.90;;;;;;5037955;28;38424;-73
2021/01/31 10:51:32;;;;;;;33.00;19.37;;;-0.50;99.90;;;;;;5047141;28;38464;-72
2021/01/31 10:54:00;;;;;;;34.53;20.50;;;-0.40;99.90;;;;;;5046782;28;38935;-72
2021/01/31 10:56:26;;;;;;;35.20;21.07;;;-0.40;99.90;;;;;;5041571;28;38325;-73
2021/01/31 10:58:53;;;;;;;35.33;20.43;;;-0.40;99.90;;;;;;5045495;28;38852;-73
2021/01/31 11:01:20;;;;;;;31.53;18.93;;;-0.30;99.90;;;;;;5042985;28;37694;-72
2021/01/31 11:03:47;;;;;;;32.90;20.03;;;-0.30;99.90;;;;;;5044977;28;38974;-73
2021/01/31 11:06:13;;;;;;;35.67;20.47;;;-0.20;99.90;;;;;;5044526;28;39737;-74
2021/01/31 11:08:40;;;;;;;35.47;20.63;;;-0.20;99.90;;;;;;5044959;28;38815;-72
2021/01/31 11:11:06;;;;;;;38.50;19.90;;;-0.10;99.90;;;;;;5043556;28;37497;-72
2021/01/31 11:13:33;;;;;;;33.20;19.87;;;-0.10;99.90;;;;;;5044657;28;38975;-72
2021/01/31 11:16:00;;;;;;;30.33;18.87;;;0.00;99.90;;;;;;5044529;28;38608;-72
2021/01/31 11:18:26;;;;;;;34.47;20.20;;;0.00;99.90;;;;;;5041203;28;40076;-72
2021/01/31 11:20:52;;;;;;;33.17;19.37;;;0.00;99.90;;;;;;5045712;28;38860;-72
2021/01/31 11:23:18;;;;;;;34.40;19.67;;;0.10;99.90;;;;;;5040971;28;39159;-71
2021/01/31 11:25:45;;;;;;;35.07;20.87;;;0.10;99.90;;;;;;5039438;28;37179;-72
2021/01/31 11:28:12;;;;;;;31.60;19.90;;;0.10;99.90;;;;;;5055994;28;38313;-72
2021/01/31 11:30:38;;;;;;;33.77;20.07;;;0.20;99.90;;;;;;5037069;28;38026;-72
2021/01/31 11:33:05;;;;;;;32.63;19.23;;;0.40;99.90;;;;;;5046785;28;38582;-72
2021/01/31 11:35:31;;;;;;;34.83;20.07;;;0.40;99.90;;;;;;5043303;28;37682;-72
2021/01/31 11:37:58;;;;;;;31.97;19.17;;;0.50;99.90;;;;;;5073160;28;38893;-72
2021/01/31 11:40:26;;;;;;;32.70;21.27;;;0.60;99.90;;;;;;5058570;28;39095;-72
2021/01/31 11:42:53;;;;;;;31.30;19.37;;;0.60;99.90;;;;;;5027924;28;38922;-72
2021/01/31 11:45:20;;;;;;;32.47;20.97;;;0.60;99.90;;;;;;5016767;28;38743;-73
2021/01/31 11:47:46;;;;;;;32.23;19.97;;;0.80;99.90;;;;;;5020507;28;38293;-72
2021/01/31 11:50:14;;;;;;;33.00;19.20;;;0.90;99.90;;;;;;5023053;28;37356;-72
2021/01/31 11:52:40;;;;;;;32.67;19.63;;;0.90;99.90;;;;;;5053251;28;38820;-72
2021/01/31 11:55:07;;;;;;;35.67;19.80;;;1.00;99.90;;;;;;5020072;28;38337;-73
2021/01/31 11:57:37;;;;;;;34.27;19.90;;;1.20;99.90;;;;;;5016354;28;38934;-73
2021/01/31 12:00:06;;;;;;;29.37;18.70;;;1.30;99.90;;;;;;5024438;28;37346;-72
2021/01/31 12:02:33;;;;;;;30.67;19.43;;;1.20;99.90;;;;;;5044343;28;47521;-73
2021/01/31 12:05:00;;;;;;;29.67;18.23;;;1.10;99.90;;;;;;5034300;28;40703;-73
2021/01/31 12:07:27;;;;;;;30.73;18.27;;;1.10;99.90;;;;;;5039792;28;40291;-73
2021/01/31 12:09:53;;;;;;;30.33;18.40;;;1.20;99.90;;;;;;5040562;28;37417;-73
2021/01/31 12:12:19;;;;;;;29.03;18.47;;;1.40;99.90;;;;;;5056238;28;37607;-73
2021/01/31 12:14:45;;;;;;;28.70;17.70;;;1.40;99.90;;;;;;5043653;28;38638;-73
2021/01/31 12:17:11;;;;;;;27.43;17.60;;;1.40;99.90;;;;;;5041980;28;38431;-73
2021/01/31 12:19:37;;;;;;;27.97;18.60;;;1.50;99.90;;;;;;5040576;27;38212;-74
2021/01/31 12:22:04;;;;;;;28.40;18.00;;;1.60;99.90;;;;;;5033373;28;39433;-74
2021/01/31 12:24:30;;;;;;;28.23;17.20;;;1.60;99.90;;;;;;5027612;28;39395;-74
2021/01/31 12:26:56;;;;;;;27.10;17.80;;;1.70;99.90;;;;;;5053934;28;39064;-73
2021/01/31 12:29:22;;;;;;;30.67;18.27;;;1.70;99.90;;;;;;5025021;28;37899;-74
2021/01/31 12:31:48;;;;;;;25.53;15.93;;;1.80;99.90;;;;;;5022216;28;38539;-75
2021/01/31 12:34:14;;;;;;;26.87;17.13;;;1.90;99.90;;;;;;5026045;28;39253;-73
2021/01/31 12:36:42;;;;;;;27.47;17.27;;;1.90;99.90;;;;;;5022905;28;38800;-74
2021/01/31 12:39:09;;;;;;;26.27;16.97;;;2.00;99.90;;;;;;5018539;28;37284;-73
2021/01/31 12:41:35;;;;;;;26.57;17.10;;;2.00;99.90;;;;;;5016938;28;39101;-74
2021/01/31 12:44:01;;;;;;;25.27;16.10;;;2.20;99.90;;;;;;5024929;28;37107;-75
2021/01/31 12:46:27;;;;;;;23.37;15.07;;;2.20;99.90;;;;;;5023177;28;47534;-74
2021/01/31 12:48:53;;;;;;;24.47;16.47;;;2.00;99.90;;;;;;5068352;28;39186;-76
2021/01/31 12:51:20;;;;;;;23.33;16.43;;;1.90;99.90;;;;;;5044845;28;39918;-76
2021/01/31 12:53:47;;;;;;;28.47;17.87;;;1.80;99.90;;;;;;5054638;28;39492;-74
2021/01/31 12:56:13;;;;;;;25.90;16.43;;;1.80;99.90;;;;;;5017907;28;36591;-74